sensor_id;sensor_type;location;lat;lon;timestamp;temperature;humidity
49821;DHT22;36893;52.520;13.450;2023-07-31T00:03:18;27.00;68.60
49821;DHT22;36893;52.520;13.450;2023-07-31T00:13:18;27.00;68.50
49821;DHT22;36893;52.520;13.450;2023-07-31T00:23:19;27.00;68.40
49821;DHT22;36893;52.520;13.450;2023-07-31T00:33:20;27.00;68.40
49821;DHT22;36893;52.520;13.450;2023-07-31T00:43:20;27.00;68.40
49821;DHT22;36893;52.520;13.450;2023-07-31T00:53:21;27.00;68.30
49821;DHT22;36893;52.520;13.450;2023-07-31T01:03:22;26.90;68.20
49821;DHT22;36893;52.520;13.450;2023-07-31T01:13:23;27.00;68.20
49821;DHT22;36893;52.520;13.450;2023-07-31T01:34:17;26.90;68.10
49821;DHT22;36893;52.520;13.450;2023-07-31T01:44:18;26.90;68.10
49821;DHT22;36893;52.520;13.450;2023-07-31T01:54:19;26.90;68.00
49821;DHT22;36893;52.520;13.450;2023-07-31T02:04:19;26.90;67.90
49821;DHT22;36893;52.520;13.450;2023-07-31T02:14:20;26.90;67.90
49821;DHT22;36893;52.520;13.450;2023-07-31T02:24:20;26.90;67.90
49821;DHT22;36893;52.520;13.450;2023-07-31T02:34:21;26.90;67.90
49821;DHT22;36893;52.520;13.450;2023-07-31T02:44:22;26.90;68.70
49821;DHT22;36893;52.520;13.450;2023-07-31T02:54:23;26.80;67.90
49821;DHT22;36893;52.520;13.450;2023-07-31T03:04:23;26.90;68.00
49821;DHT22;36893;52.520;13.450;2023-07-31T03:14:24;26.80;67.90
49821;DHT22;36893;52.520;13.450;2023-07-31T03:24:27;26.80;67.90
49821;DHT22;36893;52.520;13.450;2023-07-31T03:34:28;26.80;67.80
49821;DHT22;36893;52.520;13.450;2023-07-31T03:44:29;26.80;68.00
49821;DHT22;36893;52.520;13.450;2023-07-31T03:54:30;26.80;68.10
49821;DHT22;36893;52.520;13.450;2023-07-31T04:04:30;26.70;68.10
49821;DHT22;36893;52.520;13.450;2023-07-31T04:14:31;26.80;68.10
49821;DHT22;36893;52.520;13.450;2023-07-31T04:24:32;26.80;68.10
49821;DHT22;36893;52.520;13.450;2023-07-31T04:34:32;26.80;68.10
49821;DHT22;36893;52.520;13.450;2023-07-31T04:44:33;26.70;68.10
49821;DHT22;36893;52.520;13.450;2023-07-31T04:54:34;26.70;68.10
49821;DHT22;36893;52.520;13.450;2023-07-31T05:04:34;26.80;68.10
49821;DHT22;36893;52.520;13.450;2023-07-31T05:14:35;26.70;68.10
49821;DHT22;36893;52.520;13.450;2023-07-31T05:24:35;26.70;68.10
49821;DHT22;36893;52.520;13.450;2023-07-31T05:34:36;26.80;68.10
49821;DHT22;36893;52.520;13.450;2023-07-31T05:44:37;26.70;68.00
49821;DHT22;36893;52.520;13.450;2023-07-31T05:54:37;26.70;68.00
49821;DHT22;36893;52.520;13.450;2023-07-31T06:04:38;26.70;68.00
49821;DHT22;36893;52.520;13.450;2023-07-31T06:14:39;26.80;68.10
49821;DHT22;36893;52.520;13.450;2023-07-31T06:24:39;26.80;68.10
49821;DHT22;36893;52.520;13.450;2023-07-31T06:34:40;26.80;68.00
49821;DHT22;36893;52.520;13.450;2023-07-31T06:44:40;26.80;68.00
49821;DHT22;36893;52.520;13.450;2023-07-31T06:54:41;26.80;67.90
49821;DHT22;36893;52.520;13.450;2023-07-31T07:04:42;26.70;68.20
49821;DHT22;36893;52.520;13.450;2023-07-31T07:14:42;26.70;68.20
49821;DHT22;36893;52.520;13.450;2023-07-31T07:24:43;26.80;68.20
49821;DHT22;36893;52.520;13.450;2023-07-31T07:34:44;26.70;68.20
49821;DHT22;36893;52.520;13.450;2023-07-31T07:44:44;26.80;68.30
49821;DHT22;36893;52.520;13.450;2023-07-31T07:54:45;26.80;68.30
49821;DHT22;36893;52.520;13.450;2023-07-31T08:04:45;26.80;68.30
49821;DHT22;36893;52.520;13.450;2023-07-31T08:14:46;26.80;68.30
49821;DHT22;36893;52.520;13.450;2023-07-31T08:24:47;26.80;68.30
49821;DHT22;36893;52.520;13.450;2023-07-31T08:34:47;26.80;68.30
49821;DHT22;36893;52.520;13.450;2023-07-31T08:44:49;26.90;68.30
49821;DHT22;36893;52.520;13.450;2023-07-31T08:54:50;26.80;68.20
49821;DHT22;36893;52.520;13.450;2023-07-31T09:04:51;26.90;68.30
49821;DHT22;36893;52.520;13.450;2023-07-31T09:14:52;26.90;68.40
49821;DHT22;36893;52.520;13.450;2023-07-31T09:24:52;26.90;68.40
49821;DHT22;36893;52.520;13.450;2023-07-31T09:34:53;26.90;68.50
49821;DHT22;36893;52.520;13.450;2023-07-31T09:44:54;26.90;68.60
49821;DHT22;36893;52.520;13.450;2023-07-31T09:55:08;26.90;68.60
49821;DHT22;36893;52.520;13.450;2023-07-31T10:05:09;26.90;68.70
49821;DHT22;36893;52.520;13.450;2023-07-31T10:15:14;26.90;68.70
49821;DHT22;36893;52.520;13.450;2023-07-31T10:25:15;26.90;68.70
49821;DHT22;36893;52.520;13.450;2023-07-31T10:35:17;26.90;68.70
49821;DHT22;36893;52.520;13.450;2023-07-31T10:45:33;26.90;68.70
49821;DHT22;36893;52.520;13.450;2023-07-31T10:55:41;26.90;68.70
49821;DHT22;36893;52.520;13.450;2023-07-31T11:05:49;26.90;68.60
49821;DHT22;36893;52.520;13.450;2023-07-31T11:15:53;27.00;68.60
49821;DHT22;36893;52.520;13.450;2023-07-31T11:25:59;27.00;68.60
49821;DHT22;36893;52.520;13.450;2023-07-31T11:36:00;27.00;68.60
49821;DHT22;36893;52.520;13.450;2023-07-31T11:46:02;27.00;68.70
49821;DHT22;36893;52.520;13.450;2023-07-31T11:56:04;27.00;68.70
49821;DHT22;36893;52.520;13.450;2023-07-31T12:06:04;27.00;68.80
49821;DHT22;36893;52.520;13.450;2023-07-31T12:16:05;27.00;68.80
49821;DHT22;36893;52.520;13.450;2023-07-31T12:26:10;27.00;69.00
49821;DHT22;36893;52.520;13.450;2023-07-31T12:36:16;27.00;69.30
49821;DHT22;36893;52.520;13.450;2023-07-31T12:46:18;27.00;69.30
49821;DHT22;36893;52.520;13.450;2023-07-31T12:56:19;27.00;69.20
49821;DHT22;36893;52.520;13.450;2023-07-31T13:06:19;27.00;69.00
49821;DHT22;36893;52.520;13.450;2023-07-31T13:16:20;27.00;69.00
49821;DHT22;36893;52.520;13.450;2023-07-31T13:26:21;27.00;69.00
49821;DHT22;36893;52.520;13.450;2023-07-31T13:36:21;27.00;68.90
49821;DHT22;36893;52.520;13.450;2023-07-31T13:46:22;27.00;69.00
49821;DHT22;36893;52.520;13.450;2023-07-31T13:56:23;26.90;69.00
49821;DHT22;36893;52.520;13.450;2023-07-31T14:06:23;27.00;69.00
49821;DHT22;36893;52.520;13.450;2023-07-31T14:16:24;27.00;69.00
49821;DHT22;36893;52.520;13.450;2023-07-31T14:26:25;26.90;69.00
49821;DHT22;36893;52.520;13.450;2023-07-31T14:36:25;27.00;69.10
49821;DHT22;36893;52.520;13.450;2023-07-31T14:46:26;26.90;69.00
49821;DHT22;36893;52.520;13.450;2023-07-31T14:56:27;26.90;69.00
49821;DHT22;36893;52.520;13.450;2023-07-31T15:06:28;26.90;69.00
49821;DHT22;36893;52.520;13.450;2023-07-31T15:16:29;26.90;69.00
49821;DHT22;36893;52.520;13.450;2023-07-31T15:26:31;27.00;69.10
49821;DHT22;36893;52.520;13.450;2023-07-31T15:36:32;26.90;68.90
49821;DHT22;36893;52.520;13.450;2023-07-31T15:46:33;26.90;69.00
49821;DHT22;36893;52.520;13.450;2023-07-31T15:56:34;26.90;69.00
49821;DHT22;36893;52.520;13.450;2023-07-31T16:06:35;26.90;69.00
49821;DHT22;36893;52.520;13.450;2023-07-31T16:16:36;26.90;69.00
49821;DHT22;36893;52.520;13.450;2023-07-31T16:26:37;26.90;69.00
49821;DHT22;36893;52.520;13.450;2023-07-31T16:36:37;26.90;69.10
49821;DHT22;36893;52.520;13.450;2023-07-31T16:46:38;26.90;69.10
49821;DHT22;36893;52.520;13.450;2023-07-31T16:56:39;26.90;69.10
49821;DHT22;36893;52.520;13.450;2023-07-31T17:06:40;26.90;69.20
49821;DHT22;36893;52.520;13.450;2023-07-31T17:16:41;26.90;69.10
49821;DHT22;36893;52.520;13.450;2023-07-31T17:26:41;26.90;69.10
49821;DHT22;36893;52.520;13.450;2023-07-31T17:36:42;26.80;69.10
49821;DHT22;36893;52.520;13.450;2023-07-31T17:46:43;26.80;69.20
49821;DHT22;36893;52.520;13.450;2023-07-31T17:56:43;26.80;69.20
49821;DHT22;36893;52.520;13.450;2023-07-31T18:06:44;26.80;69.20
49821;DHT22;36893;52.520;13.450;2023-07-31T18:16:45;26.80;69.20
49821;DHT22;36893;52.520;13.450;2023-07-31T18:26:45;26.70;69.20
49821;DHT22;36893;52.520;13.450;2023-07-31T18:36:46;26.70;69.20
49821;DHT22;36893;52.520;13.450;2023-07-31T18:46:47;26.70;69.20
49821;DHT22;36893;52.520;13.450;2023-07-31T18:56:47;26.70;69.20
49821;DHT22;36893;52.520;13.450;2023-07-31T19:06:48;26.70;69.20
49821;DHT22;36893;52.520;13.450;2023-07-31T19:16:49;26.70;69.20
49821;DHT22;36893;52.520;13.450;2023-07-31T19:26:50;26.70;69.20
49821;DHT22;36893;52.520;13.450;2023-07-31T19:36:51;26.70;69.20
49821;DHT22;36893;52.520;13.450;2023-07-31T19:46:52;26.70;69.30
49821;DHT22;36893;52.520;13.450;2023-07-31T19:56:54;26.70;69.30
49821;DHT22;36893;52.520;13.450;2023-07-31T20:06:54;26.60;69.20
49821;DHT22;36893;52.520;13.450;2023-07-31T20:16:55;26.70;69.20
49821;DHT22;36893;52.520;13.450;2023-07-31T20:26:56;26.60;69.20
49821;DHT22;36893;52.520;13.450;2023-07-31T20:36:56;26.60;69.20
49821;DHT22;36893;52.520;13.450;2023-07-31T20:46:57;26.60;69.20
49821;DHT22;36893;52.520;13.450;2023-07-31T20:56:57;26.60;69.20
49821;DHT22;36893;52.520;13.450;2023-07-31T21:06:58;26.60;69.20
49821;DHT22;36893;52.520;13.450;2023-07-31T21:16:59;26.60;69.20
49821;DHT22;36893;52.520;13.450;2023-07-31T21:27:00;26.60;69.20
49821;DHT22;36893;52.520;13.450;2023-07-31T21:37:00;26.50;69.20
49821;DHT22;36893;52.520;13.450;2023-07-31T21:47:01;26.60;69.20
49821;DHT22;36893;52.520;13.450;2023-07-31T21:57:02;26.50;69.20
49821;DHT22;36893;52.520;13.450;2023-07-31T22:07:02;26.50;69.20
49821;DHT22;36893;52.520;13.450;2023-07-31T22:17:03;26.50;69.20
49821;DHT22;36893;52.520;13.450;2023-07-31T22:27:04;26.50;69.20
49821;DHT22;36893;52.520;13.450;2023-07-31T22:37:05;26.50;69.20
49821;DHT22;36893;52.520;13.450;2023-07-31T22:47:05;26.50;69.20
49821;DHT22;36893;52.520;13.450;2023-07-31T22:57:06;26.50;69.20
49821;DHT22;36893;52.520;13.450;2023-07-31T23:07:07;26.50;69.20
49821;DHT22;36893;52.520;13.450;2023-07-31T23:17:07;26.50;69.40
49821;DHT22;36893;52.520;13.450;2023-07-31T23:27:08;26.50;69.20
49821;DHT22;36893;52.520;13.450;2023-07-31T23:37:09;26.50;70.10
49821;DHT22;36893;52.520;13.450;2023-07-31T23:47:09;26.50;69.20
49821;DHT22;36893;52.520;13.450;2023-07-31T23:57:10;26.50;69.20
